sensor_id;sensor_type;location;lat;lon;timestamp;pressure;altitude;pressure_sealevel;temperature;humidity
39699;BME280;25372;50.582;12.250;2023-05-25T00:03:31;100541.28;;;5.79;84.70
39699;BME280;25372;50.582;12.250;2023-05-25T00:13:52;100534.34;;;5.80;83.08
39699;BME280;25372;50.582;12.250;2023-05-25T00:24:14;100548.75;;;5.63;83.25
39699;BME280;25372;50.582;12.250;2023-05-25T00:34:35;100537.22;;;5.72;83.90
39699;BME280;25372;50.582;12.250;2023-05-25T00:44:57;100538.16;;;5.69;82.43
39699;BME280;25372;50.582;12.250;2023-05-25T00:55:18;100527.72;;;5.42;85.89
39699;BME280;25372;50.582;12.250;2023-05-25T01:05:44;100534.25;;;5.27;86.26
39699;BME280;25372;50.582;12.250;2023-05-25T01:16:07;100541.03;;;5.33;86.81
39699;BME280;25372;50.582;12.250;2023-05-25T01:26:33;100547.28;;;4.97;86.26
39699;BME280;25372;50.582;12.250;2023-05-25T01:36:57;100557.19;;;5.14;86.69
39699;BME280;25372;50.582;12.250;2023-05-25T01:47:23;100558.31;;;5.06;87.70
39699;BME280;25372;50.582;12.250;2023-05-25T01:57:48;100552.06;;;4.81;86.70
39699;BME280;25372;50.582;12.250;2023-05-25T02:08:11;100553.00;;;4.79;85.91
39699;BME280;25372;50.582;12.250;2023-05-25T02:18:31;100550.44;;;4.45;88.15
39699;BME280;25372;50.582;12.250;2023-05-25T02:28:54;100568.28;;;4.26;86.86
39699;BME280;25372;50.582;12.250;2023-05-25T02:39:15;100573.03;;;4.43;87.75
39699;BME280;25372;50.582;12.250;2023-05-25T02:49:37;100574.16;;;4.33;85.96
39699;BME280;25372;50.582;12.250;2023-05-25T02:59:58;100573.09;;;4.73;86.01
39699;BME280;25372;50.582;12.250;2023-05-25T03:10:20;100576.81;;;4.31;86.79
39699;BME280;25372;50.582;12.250;2023-05-25T03:20:41;100587.97;;;4.35;88.10
39699;BME280;25372;50.582;12.250;2023-05-25T03:31:04;100596.75;;;4.66;87.65
39699;BME280;25372;50.582;12.250;2023-05-25T03:41:25;100613.59;;;4.84;88.14
39699;BME280;25372;50.582;12.250;2023-05-25T03:51:47;100626.94;;;5.03;87.94
39699;BME280;25372;50.582;12.250;2023-05-25T04:02:09;100627.91;;;5.60;87.81
39699;BME280;25372;50.582;12.250;2023-05-25T04:12:32;100630.94;;;6.04;86.69
39699;BME280;25372;50.582;12.250;2023-05-25T04:22:53;100635.75;;;6.43;85.24
39699;BME280;25372;50.582;12.250;2023-05-25T04:33:16;100638.13;;;6.76;83.96
39699;BME280;25372;50.582;12.250;2023-05-25T04:43:51;100643.22;;;7.28;78.23
39699;BME280;25372;50.582;12.250;2023-05-25T04:54:14;100641.44;;;7.75;78.60
39699;BME280;25372;50.582;12.250;2023-05-25T05:04:35;100630.22;;;8.38;74.55
39699;BME280;25372;50.582;12.250;2023-05-25T05:15:00;100625.56;;;11.40;68.81
39699;BME280;25372;50.582;12.250;2023-05-25T05:25:21;100615.28;;;16.88;50.01
39699;BME280;25372;50.582;12.250;2023-05-25T05:35:43;100622.59;;;18.51;46.85
39699;BME280;25372;50.582;12.250;2023-05-25T05:46:09;100621.00;;;20.03;44.53
39699;BME280;25372;50.582;12.250;2023-05-25T05:56:31;100618.38;;;21.82;38.84
39699;BME280;25372;50.582;12.250;2023-05-25T06:06:52;100628.00;;;19.94;43.02
39699;BME280;25372;50.582;12.250;2023-05-25T06:17:14;100625.47;;;14.35;55.23
39699;BME280;25372;50.582;12.250;2023-05-25T06:27:35;100627.41;;;13.07;60.10
39699;BME280;25372;50.582;12.250;2023-05-25T06:37:57;100621.53;;;12.58;60.63
39699;BME280;25372;50.582;12.250;2023-05-25T06:48:20;100635.69;;;12.86;62.08
39699;BME280;25372;50.582;12.250;2023-05-25T06:58:42;100636.88;;;12.51;62.60
39699;BME280;25372;50.582;12.250;2023-05-25T07:09:03;100634.88;;;13.00;61.23
39699;BME280;25372;50.582;12.250;2023-05-25T07:19:26;100638.81;;;12.78;62.43
39699;BME280;25372;50.582;12.250;2023-05-25T07:29:46;100636.34;;;13.19;61.21
39699;BME280;25372;50.582;12.250;2023-05-25T07:40:09;100628.91;;;13.40;59.53
39699;BME280;25372;50.582;12.250;2023-05-25T07:50:30;100630.88;;;13.51;57.11
39699;BME280;25372;50.582;12.250;2023-05-25T08:00:52;100636.09;;;13.80;57.68
39699;BME280;25372;50.582;12.250;2023-05-25T08:11:14;100649.66;;;13.74;56.57
39699;BME280;25372;50.582;12.250;2023-05-25T08:21:36;100639.28;;;14.25;54.44
39699;BME280;25372;50.582;12.250;2023-05-25T08:31:58;100639.94;;;15.70;51.56
39699;BME280;25372;50.582;12.250;2023-05-25T08:50:08;100646.25;;;18.00;45.72
39699;BME280;25372;50.582;12.250;2023-05-25T09:00:33;100648.78;;;20.00;43.18
39699;BME280;25372;50.582;12.250;2023-05-25T09:10:58;100650.44;;;20.50;42.86
39699;BME280;25372;50.582;12.250;2023-05-25T09:21:20;100646.31;;;20.76;40.73
39699;BME280;25372;50.582;12.250;2023-05-25T09:31:43;100660.59;;;18.84;45.71
39699;BME280;25372;50.582;12.250;2023-05-25T09:42:05;100658.47;;;17.59;49.97
39699;BME280;25372;50.582;12.250;2023-05-25T09:52:27;100659.28;;;16.91;50.65
39699;BME280;25372;50.582;12.250;2023-05-25T10:02:47;100678.50;;;17.06;48.42
39699;BME280;25372;50.582;12.250;2023-05-25T10:13:09;100671.22;;;16.74;51.42
39699;BME280;25372;50.582;12.250;2023-05-25T10:23:34;100668.06;;;16.80;51.46
39699;BME280;25372;50.582;12.250;2023-05-25T10:34:00;100663.16;;;17.55;49.22
39699;BME280;25372;50.582;12.250;2023-05-25T10:44:21;100658.25;;;17.16;49.74
39699;BME280;25372;50.582;12.250;2023-05-25T10:54:45;100666.25;;;17.72;50.14
39699;BME280;25372;50.582;12.250;2023-05-25T11:05:32;100650.25;;;18.06;49.01
39699;BME280;25372;50.582;12.250;2023-05-25T11:16:14;100638.09;;;17.81;48.72
39699;BME280;25372;50.582;12.250;2023-05-25T11:26:36;100636.03;;;17.52;48.40
39699;BME280;25372;50.582;12.250;2023-05-25T11:36:58;100632.50;;;17.51;48.62
39699;BME280;25372;50.582;12.250;2023-05-25T11:47:21;100632.72;;;18.15;47.53
39699;BME280;25372;50.582;12.250;2023-05-25T11:57:45;100620.19;;;18.27;48.89
39699;BME280;25372;50.582;12.250;2023-05-25T12:08:06;100607.53;;;19.24;44.27
39699;BME280;25372;50.582;12.250;2023-05-25T12:18:28;100608.50;;;19.13;46.09
39699;BME280;25372;50.582;12.250;2023-05-25T12:28:58;100598.59;;;18.63;46.75
39699;BME280;25372;50.582;12.250;2023-05-25T12:39:32;100580.38;;;18.58;45.21
39699;BME280;25372;50.582;12.250;2023-05-25T12:50:11;100579.91;;;19.05;43.51
39699;BME280;25372;50.582;12.250;2023-05-25T13:00:35;100573.50;;;19.27;43.76
39699;BME280;25372;50.582;12.250;2023-05-25T13:10:57;100572.56;;;19.48;42.63
39699;BME280;25372;50.582;12.250;2023-05-25T13:21:19;100564.94;;;19.24;41.43
39699;BME280;25372;50.582;12.250;2023-05-25T13:31:40;100561.28;;;20.53;42.75
39699;BME280;25372;50.582;12.250;2023-05-25T13:42:03;100552.19;;;22.20;38.23
39699;BME280;25372;50.582;12.250;2023-05-25T13:52:23;100535.44;;;21.56;39.70
39699;BME280;25372;50.582;12.250;2023-05-25T14:02:46;100530.91;;;22.45;39.03
39699;BME280;25372;50.582;12.250;2023-05-25T14:13:07;100531.53;;;23.00;36.35
39699;BME280;25372;50.582;12.250;2023-05-25T14:23:30;100533.16;;;22.50;37.79
39699;BME280;25372;50.582;12.250;2023-05-25T14:33:51;100521.72;;;23.26;35.34
39699;BME280;25372;50.582;12.250;2023-05-25T14:44:13;100520.63;;;23.70;34.65
39699;BME280;25372;50.582;12.250;2023-05-25T14:54:35;100516.25;;;23.94;36.83
39699;BME280;25372;50.582;12.250;2023-05-25T15:04:57;100518.00;;;22.32;36.55
39699;BME280;25372;50.582;12.250;2023-05-25T15:15:18;100520.31;;;22.54;38.16
39699;BME280;25372;50.582;12.250;2023-05-25T15:25:39;100528.91;;;21.04;40.93
39699;BME280;25372;50.582;12.250;2023-05-25T15:36:00;100520.47;;;20.33;41.78
39699;BME280;25372;50.582;12.250;2023-05-25T15:46:22;100513.22;;;20.25;42.13
39699;BME280;25372;50.582;12.250;2023-05-25T15:56:44;100502.97;;;20.30;44.02
39699;BME280;25372;50.582;12.250;2023-05-25T16:07:06;100486.16;;;20.20;41.45
39699;BME280;25372;50.582;12.250;2023-05-25T16:17:27;100477.88;;;20.13;42.73
39699;BME280;25372;50.582;12.250;2023-05-25T16:27:50;100484.25;;;19.82;42.89
39699;BME280;25372;50.582;12.250;2023-05-25T16:38:11;100483.84;;;19.97;42.93
39699;BME280;25372;50.582;12.250;2023-05-25T16:48:32;100487.75;;;19.73;42.52
39699;BME280;25372;50.582;12.250;2023-05-25T16:58:53;100473.31;;;19.95;42.99
39699;BME280;25372;50.582;12.250;2023-05-25T17:09:15;100479.63;;;19.55;42.87
39699;BME280;25372;50.582;12.250;2023-05-25T17:19:36;100479.38;;;19.48;43.43
39699;BME280;25372;50.582;12.250;2023-05-25T17:29:58;100495.56;;;19.06;44.52
39699;BME280;25372;50.582;12.250;2023-05-25T17:40:19;100491.44;;;18.41;45.80
39699;BME280;25372;50.582;12.250;2023-05-25T17:50:41;100493.72;;;17.82;47.95
39699;BME280;25372;50.582;12.250;2023-05-25T18:01:01;100491.69;;;17.53;48.21
39699;BME280;25372;50.582;12.250;2023-05-25T18:11:23;100493.03;;;17.03;49.84
39699;BME280;25372;50.582;12.250;2023-05-25T18:21:44;100510.78;;;16.57;49.99
39699;BME280;25372;50.582;12.250;2023-05-25T18:32:06;100510.50;;;16.14;51.83
39699;BME280;25372;50.582;12.250;2023-05-25T18:42:26;100516.81;;;15.64;53.15
39699;BME280;25372;50.582;12.250;2023-05-25T18:52:50;100526.72;;;15.38;54.63
39699;BME280;25372;50.582;12.250;2023-05-25T19:03:11;100537.06;;;15.04;56.25
39699;BME280;25372;50.582;12.250;2023-05-25T19:13:33;100553.72;;;14.80;56.90
39699;BME280;25372;50.582;12.250;2023-05-25T19:23:54;100560.78;;;14.53;56.64
39699;BME280;25372;50.582;12.250;2023-05-25T19:34:17;100583.69;;;14.14;59.27
39699;BME280;25372;50.582;12.250;2023-05-25T19:44:38;100580.84;;;13.77;61.41
39699;BME280;25372;50.582;12.250;2023-05-25T19:55:01;100587.25;;;13.73;63.23
39699;BME280;25372;50.582;12.250;2023-05-25T20:05:22;100601.09;;;13.49;65.25
39699;BME280;25372;50.582;12.250;2023-05-25T20:15:44;100613.28;;;13.22;63.88
39699;BME280;25372;50.582;12.250;2023-05-25T20:26:05;100615.72;;;13.11;63.00
39699;BME280;25372;50.582;12.250;2023-05-25T20:36:27;100620.16;;;12.81;64.84
39699;BME280;25372;50.582;12.250;2023-05-25T20:46:48;100616.38;;;12.56;67.07
39699;BME280;25372;50.582;12.250;2023-05-25T20:57:10;100625.09;;;12.42;66.17
39699;BME280;25372;50.582;12.250;2023-05-25T21:07:31;100639.47;;;12.37;68.46
39699;BME280;25372;50.582;12.250;2023-05-25T21:17:53;100660.41;;;11.92;69.70
39699;BME280;25372;50.582;12.250;2023-05-25T21:28:14;100661.28;;;11.76;69.50
39699;BME280;25372;50.582;12.250;2023-05-25T21:38:36;100667.38;;;11.77;68.97
39699;BME280;25372;50.582;12.250;2023-05-25T21:48:57;100666.97;;;11.68;68.63
39699;BME280;25372;50.582;12.250;2023-05-25T21:59:19;100670.94;;;11.59;70.75
39699;BME280;25372;50.582;12.250;2023-05-25T22:09:40;100683.69;;;11.67;69.33
39699;BME280;25372;50.582;12.250;2023-05-25T22:20:02;100686.63;;;11.11;70.40
39699;BME280;25372;50.582;12.250;2023-05-25T22:30:23;100689.16;;;10.97;72.40
39699;BME280;25372;50.582;12.250;2023-05-25T22:40:45;100691.06;;;11.11;70.47
39699;BME280;25372;50.582;12.250;2023-05-25T22:51:06;100700.13;;;10.87;71.45
39699;BME280;25372;50.582;12.250;2023-05-25T23:01:28;100703.00;;;10.65;73.74
39699;BME280;25372;50.582;12.250;2023-05-25T23:11:49;100710.34;;;10.58;73.38
39699;BME280;25372;50.582;12.250;2023-05-25T23:22:11;100697.84;;;10.46;73.84
39699;BME280;25372;50.582;12.250;2023-05-25T23:32:32;100706.69;;;10.43;75.01
39699;BME280;25372;50.582;12.250;2023-05-25T23:42:53;100700.63;;;10.24;73.48
39699;BME280;25372;50.582;12.250;2023-05-25T23:53:14;100700.84;;;10.19;74.21
